createdAt,value
2023-07-03T00:01:06.888Z,3.20
2023-07-03T00:04:17.363Z,3.33
2023-07-03T00:07:24.072Z,3.22
2023-07-03T00:10:30.245Z,3.58
2023-07-03T00:13:36.858Z,3.50
2023-07-03T00:16:42.358Z,3.55
2023-07-03T00:19:42.112Z,3.45
2023-07-03T00:22:28.565Z,3.33
2023-07-03T00:25:20.784Z,3.55
2023-07-03T00:28:13.717Z,3.47
2023-07-03T00:31:19.888Z,3.60
2023-07-03T00:34:26.576Z,3.90
2023-07-03T00:37:35.058Z,3.58
2023-07-03T00:40:41.315Z,3.80
2023-07-03T00:43:48.708Z,3.52
2023-07-03T00:46:57.197Z,4.30
2023-07-03T00:50:05.067Z,3.90
2023-07-03T00:53:18.218Z,3.70
2023-07-03T00:56:24.906Z,3.85
2023-07-03T00:59:30.448Z,3.80
2023-07-03T01:02:55.096Z,3.77
2023-07-03T01:06:03.653Z,3.98
2023-07-03T01:09:12.633Z,3.98
2023-07-03T01:12:19.581Z,3.70
2023-07-03T01:15:27.323Z,3.35
2023-07-03T01:18:33.103Z,3.62
2023-07-03T01:21:45.296Z,4.10
2023-07-03T01:25:03.541Z,3.72
2023-07-03T01:28:11.009Z,3.65
2023-07-03T01:31:09.960Z,3.83
2023-07-03T01:34:08.602Z,3.95
2023-07-03T01:37:14.720Z,4.30
2023-07-03T01:40:23.987Z,3.77
2023-07-03T01:43:29.120Z,4.25
2023-07-03T01:46:36.536Z,3.87
2023-07-03T01:49:42.653Z,3.52
2023-07-03T01:52:58.963Z,3.65
2023-07-03T01:56:12.479Z,3.47
2023-07-03T01:59:25.838Z,3.80
2023-07-03T02:02:33.487Z,3.45
2023-07-03T02:05:41.595Z,3.62
2023-07-03T02:08:48.119Z,3.40
2023-07-03T02:11:54.819Z,3.65
2023-07-03T02:15:01.656Z,3.17
2023-07-03T02:18:07.124Z,3.47
2023-07-03T02:21:16.567Z,3.33
2023-07-03T02:24:21.794Z,3.72
2023-07-03T02:27:27.988Z,3.20
2023-07-03T02:30:34.613Z,2.87
2023-07-03T02:33:40.816Z,2.90
2023-07-03T02:36:52.759Z,2.70
2023-07-03T02:40:00.440Z,3.67
2023-07-03T02:43:08.902Z,5.42
2023-07-03T02:46:21.165Z,4.45
2023-07-03T02:49:27.494Z,4.33
2023-07-03T02:52:33.630Z,4.12
2023-07-03T02:55:39.831Z,3.77
2023-07-03T02:58:46.492Z,3.50
2023-07-03T03:01:56.079Z,3.85
2023-07-03T03:05:01.930Z,3.70
2023-07-03T03:08:09.671Z,3.27
2023-07-03T03:11:15.189Z,3.40
2023-07-03T03:14:22.280Z,3.45
2023-07-03T03:17:29.002Z,3.05
2023-07-03T03:20:35.007Z,3.55
2023-07-03T03:23:40.603Z,3.70
2023-07-03T03:26:40.164Z,3.92
2023-07-03T03:29:38.555Z,5.20
2023-07-03T03:32:44.758Z,6.20
2023-07-03T03:35:50.618Z,8.58
2023-07-03T03:38:56.084Z,7.87
2023-07-03T03:42:02.539Z,8.50
2023-07-03T03:45:08.098Z,10.00
2023-07-03T03:48:13.617Z,9.08
2023-07-03T03:51:12.275Z,6.95
2023-07-03T03:54:05.137Z,7.00
2023-07-03T03:57:04.638Z,3.65
2023-07-03T04:00:11.690Z,3.60
2023-07-03T04:03:19.649Z,3.08
2023-07-03T04:06:26.220Z,3.22
2023-07-03T04:09:32.315Z,3.83
2023-07-03T04:12:36.995Z,3.62
2023-07-03T04:15:45.439Z,3.65
2023-07-03T04:18:51.807Z,3.10
2023-07-03T04:21:56.583Z,2.92
2023-07-03T04:25:02.704Z,3.55
2023-07-03T04:28:08.514Z,3.47
2023-07-03T04:31:14.679Z,3.40
2023-07-03T04:34:20.053Z,2.95
2023-07-03T04:37:25.482Z,3.12
2023-07-03T04:40:31.942Z,3.37
2023-07-03T04:43:37.818Z,3.00
2023-07-03T04:46:46.307Z,3.77
2023-07-03T04:49:44.806Z,3.60
2023-07-03T04:52:31.067Z,3.33
2023-07-03T04:55:24.697Z,3.80
2023-07-03T04:58:11.414Z,3.77
2023-07-03T05:01:03.278Z,3.35
2023-07-03T05:03:49.257Z,3.70
2023-07-03T05:06:41.483Z,3.35
2023-07-03T05:09:27.323Z,3.72
2023-07-03T05:12:20.405Z,3.50
2023-07-03T05:15:07.550Z,3.30
2023-07-03T05:18:03.223Z,3.95
2023-07-03T05:20:48.587Z,3.25
2023-07-03T05:23:41.531Z,3.45
2023-07-03T05:26:35.240Z,2.70
2023-07-03T05:29:40.845Z,3.57
2023-07-03T05:32:46.279Z,2.60
2023-07-03T05:35:54.544Z,2.85
2023-07-03T05:38:58.776Z,2.77
2023-07-03T05:42:04.590Z,3.02
2023-07-03T05:45:10.073Z,2.92
2023-07-03T05:48:15.267Z,3.20
2023-07-03T05:51:20.989Z,3.30
2023-07-03T05:54:28.933Z,3.10
2023-07-03T05:57:34.167Z,2.95
2023-07-03T06:00:42.175Z,2.98
2023-07-03T06:03:50.725Z,2.95
2023-07-03T06:06:56.754Z,2.83
2023-07-03T06:13:01.007Z,2.25
2023-07-03T06:16:06.394Z,2.80
2023-07-03T06:19:11.651Z,2.90
2023-07-03T06:22:18.598Z,2.65
2023-07-03T06:25:24.802Z,2.80
2023-07-03T06:28:31.467Z,2.47
2023-07-03T06:31:37.244Z,2.30
2023-07-03T06:34:43.288Z,2.70
2023-07-03T06:37:49.265Z,2.72
2023-07-03T06:40:54.144Z,2.50
2023-07-03T06:44:00.237Z,2.42
2023-07-03T06:47:06.366Z,2.45
2023-07-03T06:50:12.458Z,2.83
2023-07-03T06:53:18.461Z,1.95
2023-07-03T06:56:23.620Z,2.20
2023-07-03T06:59:30.202Z,2.40
2023-07-03T07:02:34.972Z,2.30
2023-07-03T07:05:42.882Z,2.47
2023-07-03T07:08:49.207Z,2.50
2023-07-03T07:11:56.597Z,2.30
2023-07-03T07:15:02.436Z,2.77
2023-07-03T07:18:08.460Z,2.70
2023-07-03T07:21:15.491Z,2.42
2023-07-03T07:24:38.578Z,1.90
2023-07-03T07:27:43.356Z,2.25
2023-07-03T07:30:52.803Z,2.35
2023-07-03T07:33:59.935Z,2.30
2023-07-03T07:37:05.602Z,2.30
2023-07-03T07:40:11.313Z,1.90
2023-07-03T07:43:17.800Z,2.05
2023-07-03T07:46:23.314Z,2.55
2023-07-03T07:49:29.264Z,2.20
2023-07-03T07:52:37.193Z,1.85
2023-07-03T07:55:42.649Z,1.85
2023-07-03T07:58:49.164Z,2.37
2023-07-03T08:01:57.558Z,2.10
2023-07-03T08:05:03.524Z,1.70
2023-07-03T08:08:08.812Z,1.98
2023-07-03T08:11:20.681Z,1.80
2023-07-03T08:14:27.521Z,1.82
2023-07-03T08:17:33.012Z,1.92
2023-07-03T08:20:38.535Z,1.87
2023-07-03T08:23:45.606Z,1.67
2023-07-03T08:26:53.044Z,1.92
2023-07-03T08:30:00.373Z,2.00
2023-07-03T08:33:06.870Z,1.90
2023-07-03T08:39:21.833Z,2.00
2023-07-03T08:42:39.425Z,1.80
2023-07-03T08:45:58.160Z,1.70
2023-07-03T08:49:04.206Z,1.98
2023-07-03T08:52:11.116Z,2.05
2023-07-03T08:55:16.830Z,1.98
2023-07-03T08:58:25.398Z,1.57
2023-07-03T09:01:46.976Z,2.00
2023-07-03T09:05:38.808Z,1.60
2023-07-03T09:08:50.299Z,1.50
2023-07-03T09:11:54.693Z,1.65
2023-07-03T09:14:51.865Z,1.52
2023-07-03T09:17:58.296Z,1.95
2023-07-03T09:21:04.938Z,1.50
2023-07-03T09:24:28.861Z,1.90
2023-07-03T09:27:40.392Z,1.62
2023-07-03T09:30:45.335Z,1.70
2023-07-03T09:33:51.596Z,1.80
2023-07-03T09:37:00.009Z,1.55
2023-07-03T09:40:12.481Z,1.65
2023-07-03T09:43:18.143Z,1.80
2023-07-03T09:46:28.940Z,1.60
2023-07-03T09:49:40.543Z,1.45
2023-07-03T09:52:59.350Z,1.60
2023-07-03T09:55:53.995Z,2.10
2023-07-03T09:59:03.185Z,1.98
2023-07-03T10:08:33.728Z,2.72
2023-07-03T10:15:08.104Z,2.05
2023-07-03T10:18:29.485Z,2.70
2023-07-03T10:21:36.317Z,2.10
2023-07-03T10:24:43.840Z,1.92
2023-07-03T10:27:51.845Z,1.98
2023-07-03T10:30:58.166Z,2.35
2023-07-03T10:34:06.698Z,1.72
2023-07-03T10:37:15.558Z,1.82
2023-07-03T10:40:25.738Z,2.33
2023-07-03T10:43:30.465Z,1.62
2023-07-03T10:46:44.250Z,1.87
2023-07-03T10:49:50.958Z,1.87
2023-07-03T10:53:17.520Z,1.60
2023-07-03T10:56:36.693Z,1.77
2023-07-03T10:59:47.880Z,1.80
2023-07-03T11:03:12.677Z,1.65
2023-07-03T11:06:27.661Z,1.60
2023-07-03T11:09:43.968Z,1.85
2023-07-03T11:13:04.980Z,1.50
2023-07-03T11:16:26.213Z,1.40
2023-07-03T11:20:17.183Z,1.60
2023-07-03T11:23:43.142Z,1.60
2023-07-03T11:30:15.238Z,1.77
2023-07-03T11:33:21.784Z,1.62
2023-07-03T11:40:01.136Z,1.50
2023-07-03T11:43:26.543Z,1.52
2023-07-03T11:46:38.014Z,1.85
2023-07-03T11:49:48.810Z,1.55
2023-07-03T11:52:54.572Z,1.85
2023-07-03T11:55:59.098Z,1.77
2023-07-03T11:59:06.043Z,1.65
2023-07-03T12:02:34.979Z,1.75
2023-07-03T12:06:00.174Z,1.60
2023-07-03T12:09:06.697Z,1.55
2023-07-03T12:12:21.225Z,1.27
2023-07-03T12:15:28.260Z,1.62
2023-07-03T12:18:34.114Z,1.50
2023-07-03T12:21:39.570Z,1.87
2023-07-03T12:24:47.177Z,1.67
2023-07-03T12:27:54.074Z,1.40
2023-07-03T12:30:59.154Z,1.50
2023-07-03T12:34:14.663Z,1.45
2023-07-03T12:37:24.272Z,1.60
2023-07-03T12:40:31.849Z,1.42
2023-07-03T12:43:39.191Z,1.57
2023-07-03T12:46:50.461Z,1.50
2023-07-03T12:50:08.211Z,1.52
2023-07-03T12:53:15.768Z,1.90
2023-07-03T12:56:23.180Z,1.52
2023-07-03T12:59:34.676Z,1.70
2023-07-03T13:02:44.205Z,1.50
2023-07-03T13:05:51.180Z,1.40
2023-07-03T13:09:02.786Z,1.47
2023-07-03T13:12:11.825Z,1.60
2023-07-03T13:15:39.623Z,1.55
2023-07-03T13:18:44.924Z,1.87
2023-07-03T13:21:51.697Z,1.47
2023-07-03T13:25:01.275Z,1.80
2023-07-03T13:28:07.467Z,1.30
2023-07-03T13:31:38.121Z,1.65
2023-07-03T13:34:37.081Z,2.12
2023-07-03T13:37:51.304Z,1.72
2023-07-03T13:40:58.013Z,1.85
2023-07-03T13:44:07.756Z,1.70
2023-07-03T13:47:12.054Z,2.80
2023-07-03T13:50:20.217Z,2.58
2023-07-03T13:53:27.143Z,2.00
2023-07-03T13:56:27.094Z,1.72
2023-07-03T13:59:13.692Z,1.65
2023-07-03T14:02:06.501Z,1.55
2023-07-03T14:04:52.275Z,1.67
2023-07-03T14:07:45.544Z,1.55
2023-07-03T14:10:37.994Z,1.82
2023-07-03T14:13:43.922Z,1.77
2023-07-03T14:16:49.742Z,1.50
2023-07-03T14:19:58.202Z,1.57
2023-07-03T14:23:05.871Z,1.57
2023-07-03T14:26:12.364Z,1.55
2023-07-03T14:29:17.641Z,1.72
2023-07-03T14:32:27.238Z,1.67
2023-07-03T14:35:31.790Z,1.70
2023-07-03T14:38:38.380Z,1.57
2023-07-03T14:41:44.123Z,1.75
2023-07-03T14:44:49.383Z,1.57
2023-07-03T14:47:55.889Z,1.50
2023-07-03T14:51:05.935Z,1.65
2023-07-03T14:54:11.921Z,2.00
2023-07-03T14:57:17.394Z,1.52
2023-07-03T15:00:24.886Z,1.62
2023-07-03T15:03:31.731Z,1.77
2023-07-03T15:06:38.914Z,1.85
2023-07-03T15:09:44.121Z,1.47
2023-07-03T15:12:49.315Z,1.55
2023-07-03T15:16:02.209Z,1.77
2023-07-03T15:19:08.208Z,1.45
2023-07-03T15:22:14.038Z,1.50
2023-07-03T15:25:19.767Z,1.75
2023-07-03T15:28:26.256Z,1.82
2023-07-03T15:31:26.160Z,1.98
2023-07-03T15:34:17.848Z,1.67
2023-07-03T15:37:22.813Z,1.60
2023-07-03T15:40:28.366Z,1.98
2023-07-03T15:43:33.667Z,1.80
2023-07-03T15:46:40.402Z,1.60
2023-07-03T15:49:46.583Z,2.00
2023-07-03T15:52:52.628Z,1.70
2023-07-03T15:56:03.022Z,1.98
2023-07-03T15:59:10.287Z,2.33
2023-07-03T16:02:15.287Z,2.00
2023-07-03T16:05:20.179Z,1.60
2023-07-03T16:08:26.488Z,1.92
2023-07-03T16:11:33.589Z,1.90
2023-07-03T16:14:39.748Z,1.80
2023-07-03T16:17:46.729Z,1.98
2023-07-03T16:20:55.259Z,1.90
2023-07-03T16:24:04.384Z,2.00
2023-07-03T16:27:11.424Z,2.15
2023-07-03T16:30:17.769Z,2.10
2023-07-03T16:33:22.880Z,2.37
2023-07-03T16:36:33.243Z,2.00
2023-07-03T16:39:38.799Z,2.00
2023-07-03T16:42:44.727Z,2.85
2023-07-03T16:45:51.580Z,2.90
2023-07-03T16:48:59.232Z,5.37
2023-07-03T16:52:07.362Z,5.72
2023-07-03T16:55:15.080Z,5.75
2023-07-03T16:58:21.332Z,5.55
2023-07-03T17:01:37.010Z,5.30
2023-07-03T17:04:44.092Z,5.78
2023-07-03T17:07:49.696Z,5.60
2023-07-03T17:10:49.317Z,5.17
2023-07-03T17:13:55.735Z,5.08
2023-07-03T17:17:03.352Z,4.87
2023-07-03T17:20:09.285Z,5.67
2023-07-03T17:23:14.856Z,4.67
2023-07-03T17:26:20.909Z,5.90
2023-07-03T17:29:27.316Z,4.50
2023-07-03T17:32:38.776Z,4.75
2023-07-03T17:35:46.988Z,4.17
2023-07-03T17:38:53.627Z,4.58
2023-07-03T17:42:00.705Z,4.60
2023-07-03T17:45:06.957Z,4.47
2023-07-03T17:48:12.498Z,4.78
2023-07-03T17:51:19.020Z,4.50
2023-07-03T17:54:26.362Z,5.30
2023-07-03T17:57:31.611Z,5.05
2023-07-03T18:00:38.308Z,4.83
2023-07-03T18:03:44.916Z,5.25
2023-07-03T18:06:50.242Z,4.85
2023-07-03T18:09:56.378Z,5.10
2023-07-03T18:13:03.130Z,5.30
2023-07-03T18:16:09.084Z,5.33
2023-07-03T18:19:15.223Z,6.17
2023-07-03T18:22:21.086Z,6.15
2023-07-03T18:25:26.722Z,5.80
2023-07-03T18:28:32.279Z,6.10
2023-07-03T18:31:38.222Z,6.78
2023-07-03T18:34:44.043Z,6.33
2023-07-03T18:37:50.811Z,5.33
2023-07-03T18:40:57.943Z,6.75
2023-07-03T18:44:03.590Z,6.97
2023-07-03T18:47:11.168Z,6.40
2023-07-03T18:50:10.977Z,6.35
2023-07-03T18:53:17.158Z,6.55
2023-07-03T18:56:28.668Z,6.28
2023-07-03T18:59:35.455Z,6.58
2023-07-03T19:02:41.069Z,6.65
2023-07-03T19:05:45.882Z,6.58
2023-07-03T19:08:52.704Z,6.40
2023-07-03T19:11:59.654Z,6.03
2023-07-03T19:15:04.688Z,6.75
2023-07-03T19:18:11.215Z,6.87
2023-07-03T19:21:17.331Z,7.62
2023-07-03T19:24:22.541Z,7.67
2023-07-03T19:27:28.609Z,7.05
2023-07-03T19:30:33.576Z,6.95
2023-07-03T19:33:38.804Z,6.58
2023-07-03T19:36:45.101Z,7.03
2023-07-03T19:39:51.706Z,7.08
2023-07-03T19:42:58.068Z,7.00
2023-07-03T19:46:04.031Z,7.87
2023-07-03T19:49:10.967Z,7.35
2023-07-03T19:52:18.409Z,7.28
2023-07-03T19:55:24.396Z,7.53
2023-07-03T19:58:30.018Z,8.78
2023-07-03T20:01:28.871Z,8.15
2023-07-03T20:04:35.315Z,7.78
2023-07-03T20:07:43.242Z,8.33
2023-07-03T20:10:52.756Z,8.50
2023-07-03T20:13:58.308Z,8.55
2023-07-03T20:17:04.564Z,8.58
2023-07-03T20:20:12.074Z,9.08
2023-07-03T20:23:17.024Z,8.00
2023-07-03T20:26:22.394Z,8.90
2023-07-03T20:29:28.898Z,7.53
2023-07-03T20:32:35.079Z,7.42
2023-07-03T20:35:41.134Z,9.28
2023-07-03T20:38:46.544Z,7.65
2023-07-03T20:41:52.836Z,7.85
2023-07-03T20:44:58.443Z,8.83
2023-07-03T20:48:05.085Z,8.73
2023-07-03T20:51:12.534Z,8.70
2023-07-03T20:54:22.058Z,8.20
2023-07-03T20:57:26.932Z,8.85
2023-07-03T21:00:33.457Z,9.05
2023-07-03T21:03:42.202Z,9.33
2023-07-03T21:06:50.591Z,9.45
2023-07-03T21:09:58.129Z,8.78
2023-07-03T21:13:12.355Z,9.55
2023-07-03T21:16:18.996Z,9.68
2023-07-03T21:19:26.916Z,10.15
2023-07-03T21:22:32.672Z,10.43
2023-07-03T21:25:32.410Z,10.38
2023-07-03T21:28:19.529Z,10.10
2023-07-03T21:31:12.514Z,9.80
2023-07-03T21:33:58.691Z,9.98
2023-07-03T21:36:51.224Z,10.60
2023-07-03T21:39:43.864Z,11.95
2023-07-03T21:42:49.754Z,11.80
2023-07-03T21:45:55.420Z,11.15
2023-07-03T21:49:01.256Z,11.20
2023-07-03T21:52:08.792Z,10.88
2023-07-03T21:55:15.428Z,11.70
2023-07-03T21:58:20.953Z,11.18
2023-07-03T22:01:41.828Z,10.55
2023-07-03T22:04:47.502Z,10.82
2023-07-03T22:07:53.743Z,10.20
2023-07-03T22:11:04.126Z,9.85
2023-07-03T22:14:10.658Z,10.08
2023-07-03T22:17:08.480Z,10.25
2023-07-03T22:20:01.595Z,11.22
2023-07-03T22:23:07.605Z,10.58
2023-07-03T22:26:15.475Z,10.78
2023-07-03T22:29:21.269Z,11.55
2023-07-03T22:32:30.328Z,11.18
2023-07-03T22:35:35.897Z,10.40
2023-07-03T22:38:42.270Z,12.45
2023-07-03T22:41:47.975Z,12.70
2023-07-03T22:44:53.233Z,12.05
2023-07-03T22:47:59.798Z,12.63
2023-07-03T22:51:09.953Z,13.98
2023-07-03T22:54:08.448Z,14.20
2023-07-03T22:57:13.584Z,14.58
2023-07-03T23:00:21.910Z,14.45
2023-07-03T23:03:28.006Z,15.05
2023-07-03T23:06:34.092Z,15.40
2023-07-03T23:09:43.228Z,15.35
2023-07-03T23:12:48.567Z,16.67
2023-07-03T23:15:54.331Z,15.65
2023-07-03T23:19:01.525Z,15.32
2023-07-03T23:22:07.303Z,15.60
2023-07-03T23:25:13.114Z,14.60
2023-07-03T23:28:19.015Z,14.23
2023-07-03T23:31:27.988Z,12.63
2023-07-03T23:34:34.447Z,13.38
2023-07-03T23:37:41.026Z,12.95
2023-07-03T23:40:47.625Z,12.07
2023-07-03T23:43:57.719Z,13.32
2023-07-03T23:47:03.762Z,13.72
2023-07-03T23:50:10.823Z,12.35
2023-07-03T23:53:16.688Z,13.35
2023-07-03T23:56:17.150Z,13.05
2023-07-03T23:59:22.178Z,12.43
